sensor_id;sensor_type;location;lat;lon;timestamp;P1;durP1;ratioP1;P2;durP2;ratioP2
20318;SDS011;10317;47.254;11.314;2023-04-15T00:00:08;4.95;;;4.15;;
20318;SDS011;10317;47.254;11.314;2023-04-15T00:02:34;4.45;;;4.03;;
20318;SDS011;10317;47.254;11.314;2023-04-15T00:05:01;5.45;;;4.10;;
20318;SDS011;10317;47.254;11.314;2023-04-15T00:07:26;5.13;;;4.63;;
20318;SDS011;10317;47.254;11.314;2023-04-15T00:09:53;4.40;;;4.00;;
20318;SDS011;10317;47.254;11.314;2023-04-15T00:12:21;5.47;;;4.13;;
20318;SDS011;10317;47.254;11.314;2023-04-15T00:14:51;4.85;;;4.15;;
20318;SDS011;10317;47.254;11.314;2023-04-15T00:17:17;4.90;;;4.28;;
20318;SDS011;10317;47.254;11.314;2023-04-15T00:19:42;6.05;;;4.80;;
20318;SDS011;10317;47.254;11.314;2023-04-15T00:22:11;4.75;;;4.05;;
20318;SDS011;10317;47.254;11.314;2023-04-15T00:24:37;6.85;;;4.43;;
20318;SDS011;10317;47.254;11.314;2023-04-15T00:27:03;4.60;;;4.22;;
20318;SDS011;10317;47.254;11.314;2023-04-15T00:29:29;5.45;;;4.18;;
20318;SDS011;10317;47.254;11.314;2023-04-15T00:31:55;4.57;;;4.18;;
20318;SDS011;10317;47.254;11.314;2023-04-15T00:34:22;5.05;;;4.00;;
20318;SDS011;10317;47.254;11.314;2023-04-15T00:36:48;4.43;;;4.07;;
20318;SDS011;10317;47.254;11.314;2023-04-15T00:39:14;5.47;;;4.97;;
20318;SDS011;10317;47.254;11.314;2023-04-15T00:41:40;5.00;;;4.60;;
20318;SDS011;10317;47.254;11.314;2023-04-15T00:44:06;5.43;;;4.68;;
20318;SDS011;10317;47.254;11.314;2023-04-15T00:46:36;4.28;;;3.90;;
20318;SDS011;10317;47.254;11.314;2023-04-15T00:49:03;4.53;;;3.97;;
20318;SDS011;10317;47.254;11.314;2023-04-15T00:51:30;5.10;;;4.20;;
20318;SDS011;10317;47.254;11.314;2023-04-15T00:54:01;5.80;;;4.13;;
20318;SDS011;10317;47.254;11.314;2023-04-15T00:56:28;3.65;;;3.35;;
20318;SDS011;10317;47.254;11.314;2023-04-15T00:58:54;5.60;;;4.93;;
20318;SDS011;10317;47.254;11.314;2023-04-15T01:01:20;5.85;;;4.38;;
20318;SDS011;10317;47.254;11.314;2023-04-15T01:03:48;4.68;;;4.28;;
20318;SDS011;10317;47.254;11.314;2023-04-15T01:06:15;4.63;;;4.32;;
20318;SDS011;10317;47.254;11.314;2023-04-15T01:08:41;6.40;;;4.80;;
20318;SDS011;10317;47.254;11.314;2023-04-15T01:11:08;4.95;;;4.40;;
20318;SDS011;10317;47.254;11.314;2023-04-15T01:13:34;4.40;;;4.00;;
20318;SDS011;10317;47.254;11.314;2023-04-15T01:16:00;7.35;;;3.50;;
20318;SDS011;10317;47.254;11.314;2023-04-15T01:18:27;4.18;;;3.63;;
20318;SDS011;10317;47.254;11.314;2023-04-15T01:20:53;4.32;;;3.92;;
20318;SDS011;10317;47.254;11.314;2023-04-15T01:23:19;4.28;;;3.88;;
20318;SDS011;10317;47.254;11.314;2023-04-15T01:25:47;4.55;;;3.40;;
20318;SDS011;10317;47.254;11.314;2023-04-15T01:28:14;4.22;;;3.70;;
20318;SDS011;10317;47.254;11.314;2023-04-15T01:30:40;3.97;;;3.60;;
20318;SDS011;10317;47.254;11.314;2023-04-15T01:33:05;4.60;;;3.58;;
20318;SDS011;10317;47.254;11.314;2023-04-15T01:35:31;4.68;;;4.03;;
20318;SDS011;10317;47.254;11.314;2023-04-15T01:38:04;3.80;;;3.50;;
20318;SDS011;10317;47.254;11.314;2023-04-15T01:40:33;4.03;;;3.63;;
20318;SDS011;10317;47.254;11.314;2023-04-15T01:42:59;3.30;;;3.10;;
20318;SDS011;10317;47.254;11.314;2023-04-15T01:45:25;4.25;;;3.95;;
20318;SDS011;10317;47.254;11.314;2023-04-15T01:47:51;5.78;;;3.63;;
20318;SDS011;10317;47.254;11.314;2023-04-15T01:50:17;5.55;;;3.70;;
20318;SDS011;10317;47.254;11.314;2023-04-15T01:52:44;4.45;;;3.20;;
20318;SDS011;10317;47.254;11.314;2023-04-15T01:55:11;4.10;;;3.53;;
20318;SDS011;10317;47.254;11.314;2023-04-15T01:57:37;3.35;;;3.05;;
20318;SDS011;10317;47.254;11.314;2023-04-15T02:00:03;4.40;;;3.30;;
20318;SDS011;10317;47.254;11.314;2023-04-15T02:02:29;5.20;;;3.40;;
20318;SDS011;10317;47.254;11.314;2023-04-15T02:04:55;3.97;;;3.53;;
20318;SDS011;10317;47.254;11.314;2023-04-15T02:07:20;6.22;;;3.17;;
20318;SDS011;10317;47.254;11.314;2023-04-15T02:09:46;3.10;;;2.90;;
20318;SDS011;10317;47.254;11.314;2023-04-15T02:12:12;5.88;;;3.10;;
20318;SDS011;10317;47.254;11.314;2023-04-15T02:14:38;3.08;;;2.58;;
20318;SDS011;10317;47.254;11.314;2023-04-15T02:17:03;2.58;;;2.47;;
20318;SDS011;10317;47.254;11.314;2023-04-15T02:19:32;2.53;;;2.33;;
20318;SDS011;10317;47.254;11.314;2023-04-15T02:21:59;2.97;;;2.70;;
20318;SDS011;10317;47.254;11.314;2023-04-15T02:24:26;3.92;;;2.22;;
20318;SDS011;10317;47.254;11.314;2023-04-15T02:26:53;3.45;;;2.70;;
20318;SDS011;10317;47.254;11.314;2023-04-15T02:29:18;3.28;;;2.97;;
20318;SDS011;10317;47.254;11.314;2023-04-15T02:31:44;2.78;;;2.67;;
20318;SDS011;10317;47.254;11.314;2023-04-15T02:34:10;7.38;;;2.60;;
20318;SDS011;10317;47.254;11.314;2023-04-15T02:36:35;2.40;;;2.30;;
20318;SDS011;10317;47.254;11.314;2023-04-15T02:39:01;1.98;;;1.88;;
20318;SDS011;10317;47.254;11.314;2023-04-15T02:41:28;2.53;;;2.33;;
20318;SDS011;10317;47.254;11.314;2023-04-15T02:43:54;3.67;;;2.50;;
20318;SDS011;10317;47.254;11.314;2023-04-15T02:46:20;3.92;;;2.65;;
20318;SDS011;10317;47.254;11.314;2023-04-15T02:48:47;2.40;;;2.20;;
20318;SDS011;10317;47.254;11.314;2023-04-15T02:51:14;2.17;;;1.90;;
20318;SDS011;10317;47.254;11.314;2023-04-15T02:53:42;2.58;;;2.38;;
20318;SDS011;10317;47.254;11.314;2023-04-15T02:56:08;7.13;;;2.08;;
20318;SDS011;10317;47.254;11.314;2023-04-15T02:58:34;2.60;;;2.03;;
20318;SDS011;10317;47.254;11.314;2023-04-15T03:01:00;3.03;;;2.10;;
20318;SDS011;10317;47.254;11.314;2023-04-15T03:03:26;2.35;;;2.25;;
20318;SDS011;10317;47.254;11.314;2023-04-15T03:05:52;3.45;;;2.33;;
20318;SDS011;10317;47.254;11.314;2023-04-15T03:08:18;2.10;;;1.90;;
20318;SDS011;10317;47.254;11.314;2023-04-15T03:10:45;3.72;;;2.35;;
20318;SDS011;10317;47.254;11.314;2023-04-15T03:13:11;4.90;;;2.70;;
20318;SDS011;10317;47.254;11.314;2023-04-15T03:15:37;2.10;;;2.00;;
20318;SDS011;10317;47.254;11.314;2023-04-15T03:18:02;2.00;;;1.90;;
20318;SDS011;10317;47.254;11.314;2023-04-15T03:20:28;2.00;;;1.90;;
20318;SDS011;10317;47.254;11.314;2023-04-15T03:22:54;1.88;;;1.77;;
20318;SDS011;10317;47.254;11.314;2023-04-15T03:25:19;1.73;;;1.73;;
20318;SDS011;10317;47.254;11.314;2023-04-15T03:27:45;2.78;;;2.15;;
20318;SDS011;10317;47.254;11.314;2023-04-15T03:30:11;2.53;;;1.83;;
20318;SDS011;10317;47.254;11.314;2023-04-15T03:32:37;3.40;;;1.95;;
20318;SDS011;10317;47.254;11.314;2023-04-15T03:35:03;2.05;;;1.85;;
20318;SDS011;10317;47.254;11.314;2023-04-15T03:37:29;3.53;;;1.75;;
20318;SDS011;10317;47.254;11.314;2023-04-15T03:39:55;1.70;;;1.60;;
20318;SDS011;10317;47.254;11.314;2023-04-15T03:42:21;1.70;;;1.60;;
20318;SDS011;10317;47.254;11.314;2023-04-15T03:44:46;2.40;;;2.20;;
20318;SDS011;10317;47.254;11.314;2023-04-15T03:47:12;1.50;;;1.50;;
20318;SDS011;10317;47.254;11.314;2023-04-15T03:49:37;2.20;;;2.00;;
20318;SDS011;10317;47.254;11.314;2023-04-15T03:52:03;1.70;;;1.60;;
20318;SDS011;10317;47.254;11.314;2023-04-15T03:54:29;1.73;;;1.60;;
20318;SDS011;10317;47.254;11.314;2023-04-15T03:56:55;1.75;;;1.55;;
20318;SDS011;10317;47.254;11.314;2023-04-15T03:59:21;1.98;;;1.60;;
20318;SDS011;10317;47.254;11.314;2023-04-15T04:01:47;1.60;;;1.60;;
20318;SDS011;10317;47.254;11.314;2023-04-15T04:04:13;1.45;;;1.45;;
20318;SDS011;10317;47.254;11.314;2023-04-15T04:06:39;1.75;;;1.65;;
20318;SDS011;10317;47.254;11.314;2023-04-15T04:09:04;1.70;;;1.67;;
20318;SDS011;10317;47.254;11.314;2023-04-15T04:11:30;1.75;;;1.65;;
20318;SDS011;10317;47.254;11.314;2023-04-15T04:13:57;2.53;;;1.70;;
20318;SDS011;10317;47.254;11.314;2023-04-15T04:16:22;2.10;;;1.73;;
20318;SDS011;10317;47.254;11.314;2023-04-15T04:18:48;2.03;;;1.67;;
20318;SDS011;10317;47.254;11.314;2023-04-15T04:21:14;1.83;;;1.42;;
20318;SDS011;10317;47.254;11.314;2023-04-15T04:23:40;1.40;;;1.40;;
20318;SDS011;10317;47.254;11.314;2023-04-15T04:26:06;1.35;;;1.25;;
20318;SDS011;10317;47.254;11.314;2023-04-15T04:28:31;2.05;;;1.50;;
20318;SDS011;10317;47.254;11.314;2023-04-15T04:30:57;1.52;;;1.50;;
20318;SDS011;10317;47.254;11.314;2023-04-15T04:33:23;1.75;;;1.40;;
20318;SDS011;10317;47.254;11.314;2023-04-15T04:35:49;1.85;;;1.52;;
20318;SDS011;10317;47.254;11.314;2023-04-15T04:38:14;1.55;;;1.48;;
20318;SDS011;10317;47.254;11.314;2023-04-15T04:40:40;2.05;;;1.40;;
20318;SDS011;10317;47.254;11.314;2023-04-15T04:43:06;1.58;;;1.50;;
20318;SDS011;10317;47.254;11.314;2023-04-15T04:45:32;1.30;;;1.17;;
20318;SDS011;10317;47.254;11.314;2023-04-15T04:47:57;2.95;;;1.60;;
20318;SDS011;10317;47.254;11.314;2023-04-15T04:50:23;1.45;;;1.35;;
20318;SDS011;10317;47.254;11.314;2023-04-15T04:52:49;3.08;;;1.73;;
20318;SDS011;10317;47.254;11.314;2023-04-15T04:55:15;1.40;;;1.40;;
20318;SDS011;10317;47.254;11.314;2023-04-15T04:57:40;3.08;;;1.50;;
20318;SDS011;10317;47.254;11.314;2023-04-15T05:00:06;2.28;;;1.80;;
20318;SDS011;10317;47.254;11.314;2023-04-15T05:02:33;1.30;;;1.30;;
20318;SDS011;10317;47.254;11.314;2023-04-15T05:04:59;1.48;;;1.48;;
20318;SDS011;10317;47.254;11.314;2023-04-15T05:07:25;1.48;;;1.42;;
20318;SDS011;10317;47.254;11.314;2023-04-15T05:09:51;1.60;;;1.50;;
20318;SDS011;10317;47.254;11.314;2023-04-15T05:12:17;1.20;;;1.20;;
20318;SDS011;10317;47.254;11.314;2023-04-15T05:14:43;1.73;;;1.60;;
20318;SDS011;10317;47.254;11.314;2023-04-15T05:17:11;3.85;;;1.42;;
20318;SDS011;10317;47.254;11.314;2023-04-15T05:19:36;2.22;;;1.30;;
20318;SDS011;10317;47.254;11.314;2023-04-15T05:22:02;2.47;;;1.55;;
20318;SDS011;10317;47.254;11.314;2023-04-15T05:24:28;1.30;;;1.20;;
20318;SDS011;10317;47.254;11.314;2023-04-15T05:26:53;1.38;;;1.27;;
20318;SDS011;10317;47.254;11.314;2023-04-15T05:29:20;1.42;;;1.40;;
20318;SDS011;10317;47.254;11.314;2023-04-15T05:31:46;1.17;;;1.17;;
20318;SDS011;10317;47.254;11.314;2023-04-15T05:34:12;2.80;;;1.50;;
20318;SDS011;10317;47.254;11.314;2023-04-15T05:36:39;1.50;;;1.23;;
20318;SDS011;10317;47.254;11.314;2023-04-15T05:39:05;1.60;;;1.50;;
20318;SDS011;10317;47.254;11.314;2023-04-15T05:41:31;1.85;;;1.42;;
20318;SDS011;10317;47.254;11.314;2023-04-15T05:43:57;1.33;;;1.20;;
20318;SDS011;10317;47.254;11.314;2023-04-15T05:46:22;1.40;;;1.40;;
20318;SDS011;10317;47.254;11.314;2023-04-15T05:48:48;1.95;;;1.50;;
20318;SDS011;10317;47.254;11.314;2023-04-15T05:51:13;1.98;;;1.35;;
20318;SDS011;10317;47.254;11.314;2023-04-15T05:53:39;2.17;;;1.95;;
20318;SDS011;10317;47.254;11.314;2023-04-15T05:56:05;2.67;;;1.67;;
20318;SDS011;10317;47.254;11.314;2023-04-15T05:58:31;1.40;;;1.40;;
20318;SDS011;10317;47.254;11.314;2023-04-15T06:00:57;3.33;;;1.85;;
20318;SDS011;10317;47.254;11.314;2023-04-15T06:03:23;4.25;;;1.80;;
20318;SDS011;10317;47.254;11.314;2023-04-15T06:05:49;2.80;;;1.73;;
20318;SDS011;10317;47.254;11.314;2023-04-15T06:08:15;1.75;;;1.65;;
20318;SDS011;10317;47.254;11.314;2023-04-15T06:10:41;1.67;;;1.63;;
20318;SDS011;10317;47.254;11.314;2023-04-15T06:13:07;4.10;;;1.67;;
20318;SDS011;10317;47.254;11.314;2023-04-15T06:15:32;1.55;;;1.55;;
20318;SDS011;10317;47.254;11.314;2023-04-15T06:17:58;1.85;;;1.30;;
20318;SDS011;10317;47.254;11.314;2023-04-15T06:20:24;1.60;;;1.50;;
20318;SDS011;10317;47.254;11.314;2023-04-15T06:22:50;3.47;;;1.90;;
20318;SDS011;10317;47.254;11.314;2023-04-15T06:25:16;2.45;;;2.00;;
20318;SDS011;10317;47.254;11.314;2023-04-15T06:27:42;1.75;;;1.63;;
20318;SDS011;10317;47.254;11.314;2023-04-15T06:30:07;2.20;;;1.83;;
20318;SDS011;10317;47.254;11.314;2023-04-15T06:32:34;1.60;;;1.60;;
20318;SDS011;10317;47.254;11.314;2023-04-15T06:34:59;2.22;;;2.00;;
20318;SDS011;10317;47.254;11.314;2023-04-15T06:37:25;2.13;;;1.80;;
20318;SDS011;10317;47.254;11.314;2023-04-15T06:39:51;1.70;;;1.60;;
20318;SDS011;10317;47.254;11.314;2023-04-15T06:42:16;1.92;;;1.83;;
20318;SDS011;10317;47.254;11.314;2023-04-15T06:44:42;1.77;;;1.52;;
20318;SDS011;10317;47.254;11.314;2023-04-15T06:47:08;1.95;;;1.60;;
20318;SDS011;10317;47.254;11.314;2023-04-15T06:49:34;1.90;;;1.50;;
20318;SDS011;10317;47.254;11.314;2023-04-15T06:51:59;1.42;;;1.35;;
20318;SDS011;10317;47.254;11.314;2023-04-15T06:54:25;1.90;;;1.80;;
20318;SDS011;10317;47.254;11.314;2023-04-15T06:56:51;2.05;;;1.80;;
20318;SDS011;10317;47.254;11.314;2023-04-15T06:59:17;5.35;;;2.00;;
20318;SDS011;10317;47.254;11.314;2023-04-15T07:01:43;2.20;;;1.85;;
20318;SDS011;10317;47.254;11.314;2023-04-15T07:04:09;1.77;;;1.67;;
20318;SDS011;10317;47.254;11.314;2023-04-15T07:06:35;2.33;;;2.15;;
20318;SDS011;10317;47.254;11.314;2023-04-15T07:09:01;1.65;;;1.55;;
20318;SDS011;10317;47.254;11.314;2023-04-15T07:11:27;1.38;;;1.38;;
20318;SDS011;10317;47.254;11.314;2023-04-15T07:13:53;2.05;;;1.20;;
20318;SDS011;10317;47.254;11.314;2023-04-15T07:16:18;1.85;;;1.40;;
20318;SDS011;10317;47.254;11.314;2023-04-15T07:18:44;1.23;;;1.15;;
20318;SDS011;10317;47.254;11.314;2023-04-15T07:21:10;1.38;;;1.27;;
20318;SDS011;10317;47.254;11.314;2023-04-15T07:23:35;1.88;;;1.48;;
20318;SDS011;10317;47.254;11.314;2023-04-15T07:26:01;1.75;;;1.45;;
20318;SDS011;10317;47.254;11.314;2023-04-15T07:28:27;1.40;;;1.27;;
20318;SDS011;10317;47.254;11.314;2023-04-15T07:30:54;1.35;;;1.25;;
20318;SDS011;10317;47.254;11.314;2023-04-15T07:33:21;1.45;;;1.35;;
20318;SDS011;10317;47.254;11.314;2023-04-15T07:35:47;1.85;;;1.75;;
20318;SDS011;10317;47.254;11.314;2023-04-15T07:38:13;4.65;;;1.65;;
20318;SDS011;10317;47.254;11.314;2023-04-15T07:40:39;1.92;;;1.83;;
20318;SDS011;10317;47.254;11.314;2023-04-15T07:43:05;1.42;;;1.38;;
20318;SDS011;10317;47.254;11.314;2023-04-15T07:45:31;1.20;;;1.13;;
20318;SDS011;10317;47.254;11.314;2023-04-15T07:47:56;2.67;;;1.40;;
20318;SDS011;10317;47.254;11.314;2023-04-15T07:50:22;1.40;;;1.40;;
20318;SDS011;10317;47.254;11.314;2023-04-15T07:52:49;1.20;;;1.20;;
20318;SDS011;10317;47.254;11.314;2023-04-15T07:55:15;1.60;;;1.50;;
20318;SDS011;10317;47.254;11.314;2023-04-15T07:57:44;2.17;;;1.98;;
20318;SDS011;10317;47.254;11.314;2023-04-15T08:00:11;2.95;;;1.73;;
20318;SDS011;10317;47.254;11.314;2023-04-15T08:02:37;1.73;;;1.40;;
20318;SDS011;10317;47.254;11.314;2023-04-15T08:05:03;1.42;;;1.25;;
20318;SDS011;10317;47.254;11.314;2023-04-15T08:07:29;1.35;;;1.20;;
20318;SDS011;10317;47.254;11.314;2023-04-15T08:09:55;1.98;;;1.88;;
20318;SDS011;10317;47.254;11.314;2023-04-15T08:12:21;3.95;;;3.60;;
20318;SDS011;10317;47.254;11.314;2023-04-15T08:14:48;4.68;;;4.00;;
20318;SDS011;10317;47.254;11.314;2023-04-15T08:17:17;4.20;;;3.80;;
20318;SDS011;10317;47.254;11.314;2023-04-15T08:19:43;3.58;;;2.90;;
20318;SDS011;10317;47.254;11.314;2023-04-15T08:22:09;6.20;;;3.28;;
20318;SDS011;10317;47.254;11.314;2023-04-15T08:24:36;3.30;;;3.00;;
20318;SDS011;10317;47.254;11.314;2023-04-15T08:27:02;3.67;;;3.22;;
20318;SDS011;10317;47.254;11.314;2023-04-15T08:29:29;5.20;;;3.20;;
20318;SDS011;10317;47.254;11.314;2023-04-15T08:31:58;3.13;;;2.60;;
20318;SDS011;10317;47.254;11.314;2023-04-15T08:34:25;2.67;;;2.47;;
20318;SDS011;10317;47.254;11.314;2023-04-15T08:36:51;2.88;;;2.22;;
20318;SDS011;10317;47.254;11.314;2023-04-15T08:39:17;4.20;;;2.67;;
20318;SDS011;10317;47.254;11.314;2023-04-15T08:42:01;2.25;;;2.15;;
20318;SDS011;10317;47.254;11.314;2023-04-15T08:44:34;2.08;;;1.60;;
20318;SDS011;10317;47.254;11.314;2023-04-15T08:47:01;1.40;;;1.30;;
20318;SDS011;10317;47.254;11.314;2023-04-15T08:49:27;1.30;;;1.20;;
20318;SDS011;10317;47.254;11.314;2023-04-15T08:51:54;2.60;;;1.65;;
20318;SDS011;10317;47.254;11.314;2023-04-15T08:54:22;2.38;;;1.67;;
20318;SDS011;10317;47.254;11.314;2023-04-15T08:56:47;4.50;;;2.90;;
20318;SDS011;10317;47.254;11.314;2023-04-15T08:59:14;1.90;;;1.77;;
20318;SDS011;10317;47.254;11.314;2023-04-15T09:01:40;1.80;;;1.70;;
20318;SDS011;10317;47.254;11.314;2023-04-15T09:04:06;1.65;;;1.55;;
20318;SDS011;10317;47.254;11.314;2023-04-15T09:06:32;2.47;;;1.60;;
20318;SDS011;10317;47.254;11.314;2023-04-15T09:08:58;1.80;;;1.70;;
20318;SDS011;10317;47.254;11.314;2023-04-15T09:11:24;1.50;;;1.40;;
20318;SDS011;10317;47.254;11.314;2023-04-15T09:13:51;1.50;;;1.40;;
20318;SDS011;10317;47.254;11.314;2023-04-15T09:16:16;1.60;;;1.50;;
20318;SDS011;10317;47.254;11.314;2023-04-15T09:18:42;2.15;;;1.52;;
20318;SDS011;10317;47.254;11.314;2023-04-15T09:21:09;1.48;;;1.35;;
20318;SDS011;10317;47.254;11.314;2023-04-15T09:23:38;3.83;;;1.58;;
20318;SDS011;10317;47.254;11.314;2023-04-15T09:26:06;1.60;;;1.45;;
20318;SDS011;10317;47.254;11.314;2023-04-15T09:28:32;1.30;;;1.20;;
20318;SDS011;10317;47.254;11.314;2023-04-15T09:31:05;2.97;;;2.30;;
20318;SDS011;10317;47.254;11.314;2023-04-15T09:33:30;2.70;;;2.50;;
20318;SDS011;10317;47.254;11.314;2023-04-15T09:36:01;2.35;;;2.20;;
20318;SDS011;10317;47.254;11.314;2023-04-15T09:38:28;2.30;;;2.10;;
20318;SDS011;10317;47.254;11.314;2023-04-15T09:40:55;1.92;;;1.83;;
20318;SDS011;10317;47.254;11.314;2023-04-15T09:43:22;2.15;;;1.80;;
20318;SDS011;10317;47.254;11.314;2023-04-15T09:46:00;2.63;;;2.53;;
20318;SDS011;10317;47.254;11.314;2023-04-15T09:48:26;1.95;;;1.83;;
20318;SDS011;10317;47.254;11.314;2023-04-15T09:50:53;2.15;;;1.80;;
20318;SDS011;10317;47.254;11.314;2023-04-15T09:53:22;2.58;;;1.92;;
20318;SDS011;10317;47.254;11.314;2023-04-15T09:55:54;3.22;;;2.20;;
20318;SDS011;10317;47.254;11.314;2023-04-15T09:58:21;2.75;;;2.42;;
20318;SDS011;10317;47.254;11.314;2023-04-15T10:00:49;3.22;;;2.30;;
20318;SDS011;10317;47.254;11.314;2023-04-15T10:03:21;3.28;;;2.05;;
20318;SDS011;10317;47.254;11.314;2023-04-15T10:05:48;3.13;;;2.22;;
20318;SDS011;10317;47.254;11.314;2023-04-15T10:08:19;2.88;;;2.03;;
20318;SDS011;10317;47.254;11.314;2023-04-15T10:10:48;3.75;;;2.25;;
20318;SDS011;10317;47.254;11.314;2023-04-15T10:13:15;6.47;;;2.13;;
20318;SDS011;10317;47.254;11.314;2023-04-15T10:15:43;4.00;;;2.10;;
20318;SDS011;10317;47.254;11.314;2023-04-15T10:18:13;3.55;;;2.45;;
20318;SDS011;10317;47.254;11.314;2023-04-15T10:20:43;2.47;;;2.28;;
20318;SDS011;10317;47.254;11.314;2023-04-15T10:23:10;2.67;;;2.38;;
20318;SDS011;10317;47.254;11.314;2023-04-15T10:25:36;4.88;;;3.13;;
20318;SDS011;10317;47.254;11.314;2023-04-15T10:28:03;4.00;;;2.50;;
20318;SDS011;10317;47.254;11.314;2023-04-15T10:30:32;3.25;;;2.63;;
20318;SDS011;10317;47.254;11.314;2023-04-15T10:32:58;3.15;;;2.75;;
20318;SDS011;10317;47.254;11.314;2023-04-15T10:35:25;4.57;;;2.60;;
20318;SDS011;10317;47.254;11.314;2023-04-15T10:37:52;2.72;;;2.53;;
20318;SDS011;10317;47.254;11.314;2023-04-15T10:40:25;2.75;;;2.55;;
20318;SDS011;10317;47.254;11.314;2023-04-15T10:43:01;2.40;;;2.20;;
20318;SDS011;10317;47.254;11.314;2023-04-15T10:45:30;7.22;;;2.55;;
20318;SDS011;10317;47.254;11.314;2023-04-15T10:48:03;6.25;;;3.03;;
20318;SDS011;10317;47.254;11.314;2023-04-15T10:50:34;9.98;;;3.58;;
20318;SDS011;10317;47.254;11.314;2023-04-15T10:53:02;3.63;;;2.60;;
20318;SDS011;10317;47.254;11.314;2023-04-15T10:55:31;3.00;;;2.70;;
20318;SDS011;10317;47.254;11.314;2023-04-15T10:57:58;3.47;;;2.08;;
20318;SDS011;10317;47.254;11.314;2023-04-15T11:00:28;6.07;;;3.15;;
20318;SDS011;10317;47.254;11.314;2023-04-15T11:02:56;3.65;;;2.47;;
20318;SDS011;10317;47.254;11.314;2023-04-15T11:08:07;3.90;;;2.50;;
20318;SDS011;10317;47.254;11.314;2023-04-15T11:12:59;2.70;;;2.50;;
20318;SDS011;10317;47.254;11.314;2023-04-15T11:15:33;4.15;;;2.63;;
20318;SDS011;10317;47.254;11.314;2023-04-15T11:18:14;3.33;;;2.90;;
20318;SDS011;10317;47.254;11.314;2023-04-15T11:20:58;4.53;;;2.80;;
20318;SDS011;10317;47.254;11.314;2023-04-15T11:23:30;4.15;;;2.30;;
20318;SDS011;10317;47.254;11.314;2023-04-15T11:25:58;5.60;;;2.67;;
20318;SDS011;10317;47.254;11.314;2023-04-15T11:28:25;3.80;;;2.20;;
20318;SDS011;10317;47.254;11.314;2023-04-15T11:30:55;2.30;;;1.73;;
20318;SDS011;10317;47.254;11.314;2023-04-15T11:33:22;2.40;;;2.00;;
20318;SDS011;10317;47.254;11.314;2023-04-15T11:35:48;3.75;;;2.63;;
20318;SDS011;10317;47.254;11.314;2023-04-15T11:38:16;2.50;;;2.17;;
20318;SDS011;10317;47.254;11.314;2023-04-15T11:40:42;4.38;;;2.75;;
20318;SDS011;10317;47.254;11.314;2023-04-15T11:43:09;2.88;;;2.53;;
20318;SDS011;10317;47.254;11.314;2023-04-15T11:48:17;4.32;;;2.90;;
20318;SDS011;10317;47.254;11.314;2023-04-15T11:50:44;4.63;;;2.17;;
20318;SDS011;10317;47.254;11.314;2023-04-15T11:53:11;2.10;;;2.00;;
20318;SDS011;10317;47.254;11.314;2023-04-15T11:55:47;3.90;;;2.13;;
20318;SDS011;10317;47.254;11.314;2023-04-15T11:58:21;3.88;;;1.98;;
20318;SDS011;10317;47.254;11.314;2023-04-15T12:00:52;2.63;;;2.42;;
20318;SDS011;10317;47.254;11.314;2023-04-15T12:06:09;4.28;;;1.95;;
20318;SDS011;10317;47.254;11.314;2023-04-15T12:11:28;3.53;;;2.28;;
20318;SDS011;10317;47.254;11.314;2023-04-15T12:14:02;3.50;;;2.30;;
20318;SDS011;10317;47.254;11.314;2023-04-15T12:16:45;3.47;;;2.25;;
20318;SDS011;10317;47.254;11.314;2023-04-15T12:19:15;3.60;;;2.05;;
20318;SDS011;10317;47.254;11.314;2023-04-15T12:22:02;3.92;;;2.30;;
20318;SDS011;10317;47.254;11.314;2023-04-15T12:24:31;2.65;;;1.70;;
20318;SDS011;10317;47.254;11.314;2023-04-15T12:27:00;2.88;;;1.88;;
20318;SDS011;10317;47.254;11.314;2023-04-15T12:29:28;2.88;;;2.10;;
20318;SDS011;10317;47.254;11.314;2023-04-15T12:31:55;4.20;;;1.80;;
20318;SDS011;10317;47.254;11.314;2023-04-15T12:34:26;2.92;;;1.92;;
20318;SDS011;10317;47.254;11.314;2023-04-15T12:36:52;2.72;;;1.40;;
20318;SDS011;10317;47.254;11.314;2023-04-15T12:39:26;1.88;;;1.77;;
20318;SDS011;10317;47.254;11.314;2023-04-15T12:41:53;1.40;;;1.30;;
20318;SDS011;10317;47.254;11.314;2023-04-15T12:44:20;2.67;;;1.70;;
20318;SDS011;10317;47.254;11.314;2023-04-15T12:46:48;2.72;;;2.00;;
20318;SDS011;10317;47.254;11.314;2023-04-15T12:49:14;1.45;;;1.20;;
20318;SDS011;10317;47.254;11.314;2023-04-15T12:51:40;1.60;;;1.50;;
20318;SDS011;10317;47.254;11.314;2023-04-15T12:54:06;2.40;;;1.40;;
20318;SDS011;10317;47.254;11.314;2023-04-15T12:56:32;1.80;;;1.70;;
20318;SDS011;10317;47.254;11.314;2023-04-15T12:58:58;1.85;;;1.30;;
20318;SDS011;10317;47.254;11.314;2023-04-15T13:01:23;4.90;;;2.63;;
20318;SDS011;10317;47.254;11.314;2023-04-15T13:03:49;2.22;;;2.03;;
20318;SDS011;10317;47.254;11.314;2023-04-15T13:06:15;5.43;;;1.67;;
20318;SDS011;10317;47.254;11.314;2023-04-15T13:08:41;2.58;;;1.63;;
20318;SDS011;10317;47.254;11.314;2023-04-15T13:11:07;2.20;;;1.85;;
20318;SDS011;10317;47.254;11.314;2023-04-15T13:13:33;4.43;;;1.67;;
20318;SDS011;10317;47.254;11.314;2023-04-15T13:15:58;1.70;;;1.60;;
20318;SDS011;10317;47.254;11.314;2023-04-15T13:18:24;2.45;;;1.80;;
20318;SDS011;10317;47.254;11.314;2023-04-15T13:20:50;2.10;;;1.92;;
20318;SDS011;10317;47.254;11.314;2023-04-15T13:23:16;2.83;;;1.85;;
20318;SDS011;10317;47.254;11.314;2023-04-15T13:25:42;4.70;;;2.13;;
20318;SDS011;10317;47.254;11.314;2023-04-15T13:28:09;1.67;;;1.55;;
20318;SDS011;10317;47.254;11.314;2023-04-15T13:30:36;2.25;;;1.77;;
20318;SDS011;10317;47.254;11.314;2023-04-15T13:33:03;3.65;;;1.95;;
20318;SDS011;10317;47.254;11.314;2023-04-15T13:35:28;3.03;;;1.73;;
20318;SDS011;10317;47.254;11.314;2023-04-15T13:37:56;3.00;;;1.80;;
20318;SDS011;10317;47.254;11.314;2023-04-15T13:40:21;5.68;;;1.90;;
20318;SDS011;10317;47.254;11.314;2023-04-15T13:42:47;2.65;;;2.03;;
20318;SDS011;10317;47.254;11.314;2023-04-15T13:45:13;2.17;;;1.70;;
20318;SDS011;10317;47.254;11.314;2023-04-15T13:47:39;3.13;;;2.08;;
20318;SDS011;10317;47.254;11.314;2023-04-15T13:50:05;2.53;;;1.90;;
20318;SDS011;10317;47.254;11.314;2023-04-15T13:52:31;5.38;;;2.17;;
20318;SDS011;10317;47.254;11.314;2023-04-15T13:54:57;6.30;;;2.15;;
20318;SDS011;10317;47.254;11.314;2023-04-15T13:57:22;2.80;;;1.80;;
20318;SDS011;10317;47.254;11.314;2023-04-15T13:59:49;2.08;;;1.90;;
20318;SDS011;10317;47.254;11.314;2023-04-15T14:02:14;3.70;;;2.17;;
20318;SDS011;10317;47.254;11.314;2023-04-15T14:04:40;5.65;;;2.33;;
20318;SDS011;10317;47.254;11.314;2023-04-15T14:07:06;2.22;;;1.88;;
20318;SDS011;10317;47.254;11.314;2023-04-15T14:09:32;2.13;;;1.48;;
20318;SDS011;10317;47.254;11.314;2023-04-15T14:11:58;1.83;;;1.67;;
20318;SDS011;10317;47.254;11.314;2023-04-15T14:14:25;2.35;;;1.90;;
20318;SDS011;10317;47.254;11.314;2023-04-15T14:16:51;3.30;;;1.80;;
20318;SDS011;10317;47.254;11.314;2023-04-15T14:19:16;2.20;;;2.00;;
20318;SDS011;10317;47.254;11.314;2023-04-15T14:21:42;1.52;;;1.42;;
20318;SDS011;10317;47.254;11.314;2023-04-15T14:24:08;2.78;;;2.25;;
20318;SDS011;10317;47.254;11.314;2023-04-15T14:26:33;2.67;;;2.00;;
20318;SDS011;10317;47.254;11.314;2023-04-15T14:28:59;2.50;;;2.10;;
20318;SDS011;10317;47.254;11.314;2023-04-15T14:31:25;2.20;;;1.95;;
20318;SDS011;10317;47.254;11.314;2023-04-15T14:33:50;9.88;;;4.38;;
20318;SDS011;10317;47.254;11.314;2023-04-15T14:36:16;4.85;;;2.50;;
20318;SDS011;10317;47.254;11.314;2023-04-15T14:38:42;2.42;;;1.92;;
20318;SDS011;10317;47.254;11.314;2023-04-15T14:41:08;3.80;;;1.95;;
20318;SDS011;10317;47.254;11.314;2023-04-15T14:43:35;3.75;;;1.95;;